Jamaica Plain, MA (02130)

7:47 PM EDT on September 28, 2016 (GMT -0400)
KMAJAMAI4 | | Change Station

Elev 148 ft 42.30 °N, 71.13 °W | Updated 18 minutes ago

Overcast
Overcast
56.9 °F
Feels Like 56.9 °F
N
8.7
Wind Variable Wind from NE
Gusts 20.4 mph

Today
High -- | Low -- °F
--% Chance of Precip.
Yesterday
High -- | Low -- °F
Precip. -- in
Pressure 30.27 in
Visibility 3.0 miles
Clouds Overcast 1200 ft
Dew Point 53 °F
Humidity 86%
Rainfall Not available.
Snow Depth Not available.
6:38 AM 6:30 PM
Waning Crescent, 4% visible
METAR KOWD 282253Z 04008KT 3SM BR OVC012 13/11 A3027 RMK AO2 SLP249 T01330111
Pressure 30.27 in
Visibility 3.0 miles
Clouds Overcast 1200 ft
Dew Point 53 °F
Humidity 86%
Rainfall Not available.
Snow Depth Not available.
6:38 AM 6:30 PM
Waning Crescent, 4% visible
METAR KOWD 282253Z 04008KT 3SM BR OVC012 13/11 A3027 RMK AO2 SLP249 T01330111

10-Day Weather Forecast

Almanac

Astronomy

Sep. 28, 2016 Rise Set
Actual Time
Civil Twilight
Nautical Twilight
Astronomical Twilight
Moon
Length of Visible Light
Length of Day
Tomorrow will be .
, % of the Moon is Illuminated

Today's Extremes

State Highs State Lows

Community

WunderPhotos

Upload Photos

1,942,354 photos uploaded!

WunderBlog® & News

Nearby

Air Quality

  Air Quality AQ Index Pollutant
Not available.

Snow Depth

Station Depth Elevation

Earthquake Activity

City Distance Mag. Time & Date
Minimum magnitude displayed is 2.5.

Coastal Water Temperatures

Place Temperature

Stations

Nearby Weather Stations

Station Location Temp. Windchill Dew Point Humidity Wind Precip. Elev Updated Type
                   

Watches & Warnings

There are currently no watches in effect.